| time (UTC) | temp F | wind direction | speed knots | gust knots | rain 1hr in | rain 24hr in | rain mn in | humidity % | barometer mb |
| 20260507070008 | 51 | 189 | 2.6 | 5.2 | 0.00 | 0.00 | 0.00 | 68 | 1016.8 |
| 20260507064504 | 50 | 139 | 1.7 | 5.2 | 0.00 | 0.00 | 0.00 | 69 | 1016.7 |
| 20260507063004 | 49 | 128 | 1.7 | 4.3 | 0.00 | 0.00 | 0.00 | 69 | 1016.8 |
| 20260507061504 | 48 | 150 | 0.9 | 4.3 | 0.00 | 0.00 | 0.00 | 70 | 1016.7 |
| 20260507060004 | 47 | 150 | 2.6 | 4.3 | 0.00 | 0.00 | 0.00 | 69 | 1016.8 |
| 20260507054504 | 47 | 150 | 2.6 | 5.2 | 0.00 | 0.00 | 0.00 | 69 | 1016.8 |
| 20260507053005 | 46 | 151 | 1.7 | 4.3 | 0.00 | 0.00 | 0.00 | 69 | 1016.8 |
| 20260507051504 | 46 | 151 | 1.7 | 5.2 | 0.00 | 0.00 | 0.00 | 69 | 1016.9 |
| 20260507050005 | 46 | 164 | 1.7 | 4.3 | 0.00 | 0.00 | 0.00 | 69 | 1016.9 |
| 20260507043004 | 46 | 152 | 1.7 | 4.3 | 0.00 | 0.00 | 0.00 | 69 | 1016.8 |
| 20260507041504 | 47 | 152 | 1.7 | 4.3 | 0.00 | 0.00 | 0.00 | 69 | 1016.8 |
| 20260507040004 | 47 | 153 | 1.7 | 4.3 | 0.00 | 0.00 | 0.00 | 69 | 1017.0 |
| 20260507034504 | 47 | 152 | 1.7 | 4.3 | 0.00 | 0.00 | 0.00 | 69 | 1017.0 |
| 20260507033004 | 47 | 148 | 1.7 | 5.2 | 0.00 | 0.00 | 0.00 | 69 | 1017.0 |
| 20260507031504 | 47 | 154 | 1.7 | 4.3 | 0.00 | 0.00 | 0.00 | 69 | 1017.0 |
| 20260507030005 | 47 | 168 | 2.6 | 6.1 | 0.00 | 0.00 | 0.00 | 69 | 1017.1 |
| 20260507024505 | 47 | 157 | 2.6 | 4.3 | 0.00 | 0.00 | 0.00 | 68 | 1016.9 |
| 20260507023004 | 48 | 167 | 1.7 | 4.3 | 0.00 | 0.00 | 0.00 | 68 | 1017.1 |
| 20260507021503 | 48 | 153 | 0.9 | 2.6 | 0.00 | 0.00 | 0.00 | 68 | 1017.2 |
| 20260507020004 | 48 | 153 | 0.9 | 2.6 | 0.00 | 0.00 | 0.00 | 68 | 1017.2 |
| 20260507014504 | 48 | 153 | 1.7 | 5.2 | 0.00 | 0.00 | 0.00 | 68 | 1017.3 |
| 20260507013004 | 49 | 163 | 2.6 | 4.3 | 0.00 | 0.00 | 0.00 | 68 | 1017.3 |
| 20260507010004 | 49 | 152 | 2.6 | 4.3 | 0.00 | 0.00 | 0.00 | 68 | 1017.4 |
| 20260507004504 | 49 | 152 | 1.7 | 4.3 | 0.00 | 0.00 | 0.00 | 68 | 1017.5 |
| 20260507003004 | 49 | 153 | 2.6 | 4.3 | 0.00 | 0.00 | 0.00 | 68 | 1017.7 |
| 20260507001504 | 49 | 152 | 1.7 | 5.2 | 0.00 | 0.00 | 0.00 | 67 | 1017.8 |
| 20260507000004 | 49 | 150 | 2.6 | 6.1 | 0.00 | 0.00 | 0.00 | 67 | 1017.9 |
| 20260506234504 | 50 | 148 | 1.7 | 5.2 | 0.00 | 0.00 | 0.00 | 67 | 1017.9 |
| 20260506231504 | 50 | 150 | 1.7 | 4.3 | 0.00 | 0.00 | 0.00 | 67 | 1018.2 |
| 20260506224504 | 50 | 162 | 2.6 | 2.6 | 0.00 | 0.00 | 0.00 | 66 | 1018.2 |
| 20260506214504 | 51 | 173 | 1.7 | 2.6 | 0.00 | 0.00 | 0.00 | 65 | 1018.4 |
| 20260506213004 | 52 | 173 | 0.9 | 2.6 | 0.00 | 0.00 | 0.00 | 65 | 1018.4 |
| 20260506211504 | 52 | 173 | 0.9 | 2.6 | 0.00 | 0.00 | 0.00 | 64 | 1018.4 |
| 20260506210004 | 52 | 173 | 2.6 | 2.6 | 0.00 | 0.00 | 0.00 | 64 | 1018.3 |
| 20260506203005 | 53 | 241 | 0.9 | 1.7 | 0.00 | 0.00 | 0.00 | 63 | 1018.3 |
| 20260506201504 | 53 | 241 | 0.9 | 2.6 | 0.00 | 0.00 | 0.00 | 63 | 1018.2 |
| 20260506200004 | 54 | 241 | 0.0 | 2.6 | 0.00 | 0.00 | 0.00 | 63 | 1018.0 |
| 20260506194504 | 54 | 241 | 1.7 | 2.6 | 0.00 | 0.00 | 0.00 | 63 | 1017.7 |
| 20260506193005 | 55 | 281 | 1.7 | 2.6 | 0.00 | 0.00 | 0.00 | 63 | 1017.6 |
| 20260506191504 | 56 | 282 | 0.9 | 2.6 | 0.00 | 0.00 | 0.00 | 62 | 1017.5 |
| 20260506190004 | 57 | 294 | 1.7 | 2.6 | 0.00 | 0.00 | 0.00 | 61 | 1017.4 |
| 20260506184504 | 59 | 294 | 0.9 | 2.6 | 0.00 | 0.00 | 0.00 | 59 | 1017.3 |
| 20260506183005 | 60 | 294 | 0.9 | 1.7 | 0.00 | 0.00 | 0.00 | 56 | 1017.4 |
| 20260506181504 | 61 | 294 | 0.9 | 2.6 | 0.00 | 0.00 | 0.00 | 56 | 1017.3 |
| 20260506180005 | 60 | 293 | 1.7 | 5.2 | 0.00 | 0.00 | 0.00 | 57 | 1017.3 |
| 20260506174504 | 61 | 273 | 2.6 | 4.3 | 0.00 | 0.00 | 0.00 | 56 | 1017.4 |
| 20260506173004 | 61 | 276 | 1.7 | 4.3 | 0.00 | 0.00 | 0.00 | 55 | 1017.4 |
| 20260506171504 | 60 | 0 | 0.0 | 1.7 | 0.00 | 0.00 | 0.00 | 57 | 1017.4 |
| 20260506170004 | 60 | 235 | 1.7 | 5.2 | 0.00 | 0.00 | 0.00 | 57 | 1017.4 |
| 20260506164504 | 60 | 249 | 1.7 | 7.0 | 0.00 | 0.00 | 0.00 | 57 | 1017.4 |
| 20260506163004 | 60 | 238 | 1.7 | 6.1 | 0.00 | 0.00 | 0.00 | 57 | 1017.4 |
| 20260506161505 | 60 | 243 | 4.3 | 7.0 | 0.00 | 0.00 | 0.00 | 55 | 1017.4 |
| 20260506154503 | 60 | 267 | 4.3 | 10.4 | 0.00 | 0.00 | 0.00 | 54 | 1017.6 |
| 20260506150005 | 59 | 273 | 4.3 | 8.7 | 0.00 | 0.00 | 0.00 | 58 | 1017.7 |
| 20260506144504 | 59 | 223 | 4.3 | 8.7 | 0.00 | 0.00 | 0.00 | 57 | 1017.7 |
| 20260506143005 | 59 | 264 | 2.6 | 7.8 | 0.00 | 0.00 | 0.00 | 57 | 1017.9 |
| 20260506141504 | 58 | 213 | 3.5 | 6.1 | 0.00 | 0.00 | 0.00 | 58 | 1017.9 |
| 20260506140004 | 58 | 272 | 2.6 | 7.8 | 0.00 | 0.00 | 0.00 | 59 | 1018.1 |
| 20260506134504 | 57 | 220 | 1.7 | 8.7 | 0.00 | 0.00 | 0.00 | 60 | 1018.1 |
| 20260506131504 | 57 | 244 | 4.3 | 12.2 | 0.00 | 0.00 | 0.00 | 61 | 1018.0 |
| 20260506130005 | 57 | 281 | 6.1 | 12.2 | 0.00 | 0.00 | 0.00 | 61 | 1017.8 |
| 20260506124504 | 56 | 220 | 6.1 | 13.0 | 0.00 | 0.00 | 0.00 | 62 | 1017.7 |
| 20260506123005 | 56 | 220 | 4.3 | 10.4 | 0.00 | 0.00 | 0.00 | 62 | 1017.7 |
| 20260506121504 | 57 | 202 | 5.2 | 13.9 | 0.00 | 0.00 | 0.00 | 62 | 1017.7 |
| 20260506120005 | 58 | 269 | 7.8 | 14.8 | 0.00 | 0.00 | 0.00 | 60 | 1017.7 |
| 20260506114505 | 58 | 223 | 4.3 | 10.4 | 0.00 | 0.00 | 0.00 | 59 | 1017.7 |
| 20260506113004 | 58 | 199 | 4.3 | 10.4 | 0.00 | 0.00 | 0.00 | 59 | 1017.7 |
| 20260506111504 | 59 | 217 | 2.6 | 10.4 | 0.00 | 0.00 | 0.00 | 58 | 1017.6 |
| 20260506110004 | 59 | 185 | 4.3 | 10.4 | 0.00 | 0.00 | 0.00 | 57 | 1017.4 |
| 20260506104504 | 59 | 234 | 3.5 | 10.4 | 0.00 | 0.00 | 0.00 | 56 | 1017.4 |
| 20260506103004 | 59 | 214 | 6.1 | 11.3 | 0.00 | 0.00 | 0.00 | 56 | 1017.4 |
| 20260506101504 | 58 | 183 | 4.3 | 8.7 | 0.00 | 0.00 | 0.00 | 58 | 1017.5 |
| 20260506100005 | 57 | 210 | 2.6 | 10.4 | 0.00 | 0.00 | 0.00 | 59 | 1017.5 |
| 20260506094504 | 56 | 178 | 7.0 | 10.4 | 0.00 | 0.00 | 0.00 | 58 | 1017.5 |
| 20260506093004 | 56 | 176 | 6.1 | 10.4 | 0.00 | 0.00 | 0.00 | 59 | 1017.5 |
| 20260506091504 | 56 | 210 | 4.3 | 11.3 | 0.00 | 0.00 | 0.00 | 59 | 1017.5 |
| 20260506084504 | 56 | 170 | 2.6 | 5.2 | 0.00 | 0.00 | 0.00 | 59 | 1017.1 |
| 20260506083004 | 55 | 202 | 4.3 | 12.2 | 0.00 | 0.00 | 0.00 | 59 | 1017.1 |
| 20260506081504 | 55 | 185 | 4.3 | 8.7 | 0.00 | 0.00 | 0.00 | 59 | 1017.1 |
| 20260506073004 | 53 | 0 | 0.0 | 0.0 | 0.00 | 0.00 | 0.00 | 65 | 1016.8 |
| 20260506071504 | 53 | 1 | 0.0 | 2.6 | 0.00 | 0.00 | 0.00 | 65 | 1016.8 |